Time;durP1;ratioP1;P1;durP2;ratioP2;P2;SDS_P1;SDS_P2;PMS_P1;PMS_P2;Temp;Humidity;BMP_temperature;BMP_pressure;BME280_temperature;BME280_humidity;BME280_pressure;Samples;Min_cycle;Max_cycle;Signal;HPM_P1;HPM_P2
2023/08/13 00:02:08;;;;;;;13.10;2.63;;;16.30;99.90;;;;;;5055535;28;20080;-77
2023/08/13 00:04:34;;;;;;;14.87;2.57;;;16.30;99.90;;;;;;5055422;28;20049;-77
2023/08/13 00:07:00;;;;;;;17.23;2.65;;;16.30;99.90;;;;;;5055432;28;20167;-76
2023/08/13 00:09:26;;;;;;;16.25;2.78;;;16.40;99.90;;;;;;5054548;28;20114;-76
2023/08/13 00:11:53;;;;;;;12.90;2.90;;;16.40;99.90;;;;;;5055075;28;20049;-75
2023/08/13 00:14:19;;;;;;;13.35;3.05;;;16.50;99.90;;;;;;5054144;28;20429;-75
2023/08/13 00:16:47;;;;;;;13.82;3.08;;;16.50;99.90;;;;;;5053843;28;20049;-77
2023/08/13 00:19:16;;;;;;;15.60;2.97;;;16.50;99.90;;;;;;5055288;28;20053;-77
2023/08/13 00:21:41;;;;;;;20.58;3.20;;;16.50;99.90;;;;;;5053987;28;20052;-76
2023/08/13 00:24:07;;;;;;;15.32;2.85;;;16.50;99.90;;;;;;5055315;28;20102;-76
2023/08/13 00:26:34;;;;;;;15.13;3.27;;;16.50;99.90;;;;;;5055079;28;20041;-76
2023/08/13 00:29:00;;;;;;;20.05;3.50;;;16.50;99.90;;;;;;5057758;28;20114;-73
2023/08/13 00:31:25;;;;;;;21.40;3.10;;;16.50;99.90;;;;;;5060399;28;20049;-74
2023/08/13 00:33:51;;;;;;;16.88;2.92;;;16.50;99.90;;;;;;5054189;28;20477;-76
2023/08/13 00:36:17;;;;;;;19.07;2.87;;;16.60;99.90;;;;;;5054894;28;20048;-77
2023/08/13 00:38:42;;;;;;;16.83;2.87;;;16.60;99.90;;;;;;5055621;28;20124;-75
2023/08/13 00:41:08;;;;;;;16.90;2.65;;;16.60;99.90;;;;;;5056481;28;20096;-76
2023/08/13 00:43:36;;;;;;;22.80;3.60;;;16.60;99.90;;;;;;5054297;28;20044;-75
2023/08/13 00:46:03;;;;;;;22.38;3.53;;;16.70;99.90;;;;;;5055581;28;20052;-75
2023/08/13 00:48:29;;;;;;;17.20;3.55;;;16.60;99.90;;;;;;5055797;28;20147;-76
2023/08/13 00:50:56;;;;;;;18.25;3.38;;;16.60;99.90;;;;;;5055686;28;20052;-75
2023/08/13 00:53:23;;;;;;;19.83;3.08;;;16.70;99.90;;;;;;5061370;28;20041;-75
2023/08/13 00:55:49;;;;;;;16.40;3.35;;;16.70;99.90;;;;;;5059091;28;20045;-76
2023/08/13 00:58:15;;;;;;;21.45;3.80;;;16.70;99.90;;;;;;5057308;28;20091;-76
2023/08/13 01:00:41;;;;;;;17.15;3.35;;;16.60;99.90;;;;;;5039026;28;20106;-76
2023/08/13 01:03:07;;;;;;;13.83;3.50;;;16.50;99.90;;;;;;5054288;28;20052;-77
2023/08/13 01:05:56;;;;;;;22.07;3.97;;;16.50;99.90;;;;;;5055672;28;20200;-76
2023/08/13 01:08:37;;;;;;;20.42;3.38;;;16.40;99.90;;;;;;5054108;28;20041;-76
2023/08/13 01:11:31;;;;;;;19.70;3.80;;;16.40;99.90;;;;;;5054732;28;20128;-76
2023/08/13 01:14:15;;;;;;;21.42;3.22;;;16.30;99.90;;;;;;5053043;28;20099;-76
2023/08/13 01:16:43;;;;;;;14.63;3.40;;;16.20;99.90;;;;;;5055744;28;20109;-75
2023/08/13 01:19:13;;;;;;;20.02;4.07;;;16.10;99.90;;;;;;5052944;28;20044;-77
2023/08/13 01:21:39;;;;;;;14.75;3.47;;;16.10;99.90;;;;;;5054059;28;20045;-76
2023/08/13 01:24:05;;;;;;;20.80;3.70;;;16.00;99.90;;;;;;5053796;28;20051;-77
2023/08/13 01:26:45;;;;;;;21.13;3.55;;;15.90;99.90;;;;;;5054003;28;20049;-76
2023/08/13 01:29:32;;;;;;;23.20;4.20;;;15.90;99.90;;;;;;5053779;28;20055;-76
2023/08/13 01:32:02;;;;;;;21.38;3.78;;;15.80;99.90;;;;;;5054062;28;20072;-77
2023/08/13 01:34:28;;;;;;;18.75;3.60;;;15.80;99.90;;;;;;5054095;28;20052;-75
2023/08/13 01:36:54;;;;;;;17.67;3.33;;;15.80;99.90;;;;;;5053740;28;20099;-75
2023/08/13 01:39:20;;;;;;;16.77;3.80;;;15.70;99.90;;;;;;5053649;28;20041;-75
2023/08/13 01:41:54;;;;;;;19.08;3.17;;;15.70;99.90;;;;;;5052898;28;20060;-75
2023/08/13 01:44:20;;;;;;;14.57;3.38;;;15.80;99.90;;;;;;5054594;28;20128;-76
2023/08/13 01:46:47;;;;;;;22.00;4.32;;;15.80;99.90;;;;;;5053513;28;20118;-76
2023/08/13 01:49:13;;;;;;;16.65;3.33;;;15.80;99.90;;;;;;5052298;28;20053;-76
2023/08/13 01:51:38;;;;;;;23.13;3.47;;;15.70;99.90;;;;;;5052880;28;20048;-76
2023/08/13 01:54:04;;;;;;;24.17;4.33;;;15.60;99.90;;;;;;5036126;28;20045;-76
2023/08/13 01:56:30;;;;;;;20.98;3.95;;;15.60;99.90;;;;;;5053159;28;20142;-75
2023/08/13 01:58:55;;;;;;;24.42;4.85;;;15.60;99.90;;;;;;5052312;28;20045;-74
2023/08/13 02:01:21;;;;;;;18.25;3.83;;;15.60;99.90;;;;;;5053485;28;20048;-76
2023/08/13 02:03:47;;;;;;;17.08;3.72;;;15.50;99.90;;;;;;5053362;28;20057;-75
2023/08/13 02:06:13;;;;;;;27.08;4.00;;;15.50;99.90;;;;;;5052556;28;20049;-75
2023/08/13 02:08:38;;;;;;;23.53;4.17;;;15.50;99.90;;;;;;5053501;28;20040;-74
2023/08/13 02:11:04;;;;;;;19.70;3.80;;;15.50;99.90;;;;;;5054587;28;20053;-75
2023/08/13 02:13:30;;;;;;;18.92;4.07;;;15.40;99.90;;;;;;5056041;28;20045;-77
2023/08/13 02:16:02;;;;;;;14.88;3.50;;;15.40;99.90;;;;;;5055310;28;20050;-76
2023/08/13 02:18:27;;;;;;;17.88;3.97;;;15.40;99.90;;;;;;5057058;28;20412;-76
2023/08/13 02:20:53;;;;;;;21.48;4.18;;;15.30;99.90;;;;;;5058918;28;20053;-75
2023/08/13 02:23:19;;;;;;;20.73;4.28;;;15.40;99.90;;;;;;5058937;28;20048;-76
2023/08/13 02:25:44;;;;;;;19.83;3.80;;;15.40;99.90;;;;;;5058989;28;20075;-75
2023/08/13 02:28:10;;;;;;;16.95;3.85;;;15.30;99.90;;;;;;5057075;28;20044;-75
2023/08/13 02:30:39;;;;;;;14.88;4.10;;;15.30;99.90;;;;;;5058159;28;20045;-76
2023/08/13 02:33:05;;;;;;;19.13;4.22;;;15.30;99.90;;;;;;5057114;28;20052;-76
2023/08/13 02:35:31;;;;;;;15.68;3.85;;;15.30;99.90;;;;;;5057157;28;20045;-76
2023/08/13 02:37:56;;;;;;;19.48;4.20;;;15.30;99.90;;;;;;5056994;28;20053;-75
2023/08/13 02:40:22;;;;;;;25.70;4.55;;;15.20;99.90;;;;;;5056969;28;20091;-75
2023/08/13 02:42:48;;;;;;;19.00;4.38;;;15.20;99.90;;;;;;5057779;28;20080;-75
2023/08/13 02:45:13;;;;;;;16.27;3.53;;;15.20;99.90;;;;;;5056856;28;20133;-75
2023/08/13 02:47:39;;;;;;;19.63;4.30;;;15.20;99.90;;;;;;5056269;28;20040;-76
2023/08/13 02:50:06;;;;;;;18.48;3.75;;;15.20;99.90;;;;;;5056428;28;20386;-78
2023/08/13 02:52:32;;;;;;;22.95;3.65;;;15.20;99.90;;;;;;5056367;28;20103;-74
2023/08/13 02:54:58;;;;;;;19.50;3.85;;;15.10;99.90;;;;;;5056511;28;20432;-76
2023/08/13 02:57:23;;;;;;;18.75;4.07;;;15.10;99.90;;;;;;5038782;28;20501;-75
2023/08/13 02:59:49;;;;;;;13.88;3.75;;;15.10;99.90;;;;;;5056163;28;20053;-76
2023/08/13 03:02:16;;;;;;;20.02;4.03;;;15.00;99.90;;;;;;5055081;28;20097;-75
2023/08/13 03:04:42;;;;;;;23.65;3.95;;;15.00;99.90;;;;;;5039227;28;20052;-76
2023/08/13 03:07:08;;;;;;;18.35;3.40;;;15.00;99.90;;;;;;5055169;28;20076;-74
2023/08/13 03:09:34;;;;;;;22.08;4.03;;;15.00;99.90;;;;;;5038644;28;20044;-74
2023/08/13 03:12:00;;;;;;;20.13;4.40;;;15.00;99.90;;;;;;5056972;28;20044;-76
2023/08/13 03:14:25;;;;;;;19.45;4.38;;;15.00;99.90;;;;;;5054969;28;20106;-75
2023/08/13 03:16:51;;;;;;;21.13;3.75;;;14.90;99.90;;;;;;5055811;28;20461;-76
2023/08/13 03:19:17;;;;;;;19.45;4.30;;;14.90;99.90;;;;;;5056224;28;20405;-76
2023/08/13 03:21:43;;;;;;;20.77;4.10;;;14.90;99.90;;;;;;5038318;28;20500;-75
2023/08/13 03:24:08;;;;;;;18.40;3.70;;;14.90;99.90;;;;;;5055928;28;20103;-75
2023/08/13 03:26:34;;;;;;;19.20;3.67;;;14.90;99.90;;;;;;5055229;28;20107;-74
2023/08/13 03:29:00;;;;;;;19.55;3.97;;;14.90;99.90;;;;;;5038393;28;20091;-74
2023/08/13 03:31:25;;;;;;;17.00;3.50;;;14.90;99.90;;;;;;5037591;28;20045;-76
2023/08/13 03:33:51;;;;;;;25.02;4.15;;;14.80;99.90;;;;;;5055889;28;20051;-74
2023/08/13 03:36:17;;;;;;;15.02;3.72;;;14.80;99.90;;;;;;5056161;28;20489;-75
2023/08/13 03:38:43;;;;;;;11.93;3.42;;;14.80;99.90;;;;;;5054357;28;20041;-74
2023/08/13 03:41:09;;;;;;;17.42;3.85;;;14.80;99.90;;;;;;5055534;28;20048;-75
2023/08/13 03:43:35;;;;;;;18.10;3.33;;;14.80;99.90;;;;;;5055152;28;20053;-75
2023/08/13 03:46:03;;;;;;;18.33;3.75;;;14.70;99.90;;;;;;5054461;28;20485;-74
2023/08/13 03:48:30;;;;;;;19.80;3.55;;;14.70;99.90;;;;;;5055898;28;20103;-75
2023/08/13 03:50:56;;;;;;;13.60;4.22;;;14.70;99.90;;;;;;5056669;28;20061;-75
2023/08/13 03:53:24;;;;;;;21.92;4.18;;;14.70;99.90;;;;;;5055864;28;20461;-76
2023/08/13 03:55:50;;;;;;;14.82;3.17;;;14.70;99.90;;;;;;5055481;28;20049;-77
2023/08/13 03:58:16;;;;;;;12.13;3.70;;;14.70;99.90;;;;;;5056146;28;20209;-74
2023/08/13 04:00:42;;;;;;;19.75;3.83;;;14.60;99.90;;;;;;5055516;28;20080;-74
2023/08/13 04:03:09;;;;;;;18.70;3.42;;;14.60;99.90;;;;;;5053916;28;20481;-75
2023/08/13 04:05:35;;;;;;;21.05;4.60;;;14.60;99.90;;;;;;5038139;28;20055;-75
2023/08/13 04:08:01;;;;;;;16.63;3.95;;;14.60;99.90;;;;;;5055365;28;20045;-75
2023/08/13 04:10:27;;;;;;;18.43;3.70;;;14.60;99.90;;;;;;5054402;28;20064;-74
2023/08/13 04:12:55;;;;;;;20.90;3.95;;;14.60;99.90;;;;;;5021789;28;20032;-75
2023/08/13 04:15:22;;;;;;;16.30;3.60;;;14.50;99.90;;;;;;5054987;28;20037;-75
2023/08/13 04:17:48;;;;;;;15.27;3.88;;;14.60;99.90;;;;;;5053642;28;20048;-76
2023/08/13 04:20:14;;;;;;;21.52;3.88;;;14.50;99.90;;;;;;5053676;28;20046;-75
2023/08/13 04:22:39;;;;;;;22.30;3.20;;;14.50;99.90;;;;;;5054866;28;20048;-74
2023/08/13 04:25:07;;;;;;;23.17;3.97;;;14.60;99.90;;;;;;5054786;28;20104;-74
2023/08/13 04:27:33;;;;;;;18.45;3.70;;;14.60;99.90;;;;;;5037272;28;20045;-75
2023/08/13 04:29:59;;;;;;;19.53;3.80;;;14.70;99.90;;;;;;5054816;28;20048;-75
2023/08/13 04:32:25;;;;;;;18.30;3.90;;;14.70;99.90;;;;;;5055369;28;20102;-77
2023/08/13 04:34:51;;;;;;;15.82;4.10;;;14.70;99.90;;;;;;5053382;28;20052;-75
2023/08/13 04:37:17;;;;;;;17.77;4.25;;;14.70;99.90;;;;;;5053392;28;20049;-76
2023/08/13 04:39:42;;;;;;;20.20;4.10;;;14.70;99.90;;;;;;5037668;28;20454;-74
2023/08/13 04:42:08;;;;;;;21.65;5.05;;;14.70;99.90;;;;;;5054468;28;20160;-75
2023/08/13 04:44:34;;;;;;;15.73;4.15;;;14.80;99.90;;;;;;5053318;28;20384;-75
2023/08/13 04:47:00;;;;;;;20.08;4.50;;;14.80;99.90;;;;;;5053290;28;20045;-74
2023/08/13 04:49:25;;;;;;;16.42;4.22;;;14.80;99.90;;;;;;5054602;28;20139;-75
2023/08/13 04:51:51;;;;;;;17.08;4.60;;;14.90;99.90;;;;;;5054883;28;20064;-75
2023/08/13 04:54:17;;;;;;;16.25;3.95;;;14.90;99.90;;;;;;5052970;28;20056;-75
2023/08/13 04:56:42;;;;;;;17.13;3.72;;;15.00;99.90;;;;;;5036539;28;20054;-74
2023/08/13 04:59:08;;;;;;;21.98;4.20;;;15.00;99.90;;;;;;5054582;28;20136;-75
2023/08/13 05:01:34;;;;;;;22.52;4.35;;;15.10;99.90;;;;;;5053703;28;20354;-75
2023/08/13 05:04:00;;;;;;;15.52;4.00;;;15.20;99.90;;;;;;5053422;28;20536;-74
2023/08/13 05:06:25;;;;;;;17.23;3.55;;;15.20;99.90;;;;;;5052938;28;20477;-74
2023/08/13 05:08:51;;;;;;;17.25;4.28;;;15.20;99.90;;;;;;5037156;28;20350;-76
2023/08/13 05:11:17;;;;;;;20.35;4.00;;;15.30;99.90;;;;;;5054668;28;20393;-75
2023/08/13 05:13:43;;;;;;;15.85;3.90;;;15.40;99.90;;;;;;5036206;28;20060;-76
2023/08/13 05:16:08;;;;;;;15.55;3.90;;;15.50;99.90;;;;;;5036285;28;20556;-75
2023/08/13 05:18:34;;;;;;;21.52;4.50;;;15.50;99.90;;;;;;5053666;28;20041;-75
2023/08/13 05:21:00;;;;;;;16.55;3.83;;;15.60;99.90;;;;;;5052515;28;20079;-74
2023/08/13 05:23:25;;;;;;;21.58;4.30;;;15.60;99.90;;;;;;5019650;28;20045;-75
2023/08/13 05:25:51;;;;;;;18.57;4.17;;;15.60;99.90;;;;;;5052737;28;20071;-76
2023/08/13 05:28:17;;;;;;;19.35;4.57;;;15.60;99.90;;;;;;5053570;28;20080;-74
2023/08/13 05:30:43;;;;;;;20.20;4.72;;;15.70;99.90;;;;;;5036001;28;20057;-76
2023/08/13 05:33:08;;;;;;;21.83;5.03;;;15.80;99.90;;;;;;5052610;28;20124;-74
2023/08/13 05:35:34;;;;;;;19.55;4.57;;;15.80;99.90;;;;;;5052452;28;20139;-76
2023/08/13 05:38:00;;;;;;;22.42;4.75;;;15.80;99.90;;;;;;5053350;28;20040;-76
2023/08/13 05:40:25;;;;;;;26.60;4.20;;;15.90;99.90;;;;;;5053384;28;20040;-76
2023/08/13 05:42:51;;;;;;;15.38;4.35;;;15.90;99.90;;;;;;5052468;28;20413;-75
2023/08/13 05:45:17;;;;;;;19.83;4.85;;;16.00;99.90;;;;;;5053265;28;20084;-75
2023/08/13 05:47:43;;;;;;;24.15;4.97;;;16.10;99.90;;;;;;5052363;28;20045;-74
2023/08/13 05:50:09;;;;;;;15.65;3.78;;;16.10;99.90;;;;;;5053287;28;20064;-74
2023/08/13 05:52:35;;;;;;;26.38;4.32;;;16.20;99.90;;;;;;5068718;28;20416;-76
2023/08/13 05:55:00;;;;;;;23.05;4.10;;;16.20;99.90;;;;;;5053213;28;20050;-76
2023/08/13 05:57:26;;;;;;;17.38;4.32;;;16.30;99.90;;;;;;5054138;28;20088;-76
2023/08/13 05:59:52;;;;;;;26.73;5.22;;;16.30;99.90;;;;;;5053084;28;20429;-75
2023/08/13 06:02:18;;;;;;;23.73;4.47;;;16.30;99.90;;;;;;5052972;28;20040;-76
2023/08/13 06:04:44;;;;;;;23.27;4.10;;;16.30;99.90;;;;;;5053184;28;20049;-76
2023/08/13 06:07:10;;;;;;;21.00;3.90;;;16.30;99.90;;;;;;5051996;28;20041;-75
2023/08/13 06:09:35;;;;;;;21.40;4.60;;;16.30;99.90;;;;;;5035610;28;20113;-77
2023/08/13 06:12:01;;;;;;;15.70;4.73;;;16.40;99.90;;;;;;5035664;28;20052;-75
2023/08/13 06:14:27;;;;;;;24.15;4.65;;;16.50;99.90;;;;;;5053305;28;20048;-75
2023/08/13 06:16:52;;;;;;;20.48;4.30;;;16.50;99.90;;;;;;5052087;28;20056;-76
2023/08/13 06:19:18;;;;;;;15.50;3.90;;;16.60;99.90;;;;;;5052775;28;20090;-75
2023/08/13 06:21:44;;;;;;;20.73;4.47;;;16.60;99.90;;;;;;5052770;28;20449;-75
2023/08/13 06:24:10;;;;;;;23.83;4.03;;;16.70;99.90;;;;;;5051788;28;20041;-76
2023/08/13 06:26:36;;;;;;;16.43;4.27;;;16.70;99.90;;;;;;5035421;28;20049;-74
2023/08/13 06:29:02;;;;;;;22.30;4.47;;;16.80;99.90;;;;;;5052062;28;20469;-78
2023/08/13 06:31:27;;;;;;;23.83;4.67;;;16.90;99.90;;;;;;5053010;28;20048;-76
2023/08/13 06:33:53;;;;;;;20.37;4.67;;;17.00;99.90;;;;;;5035323;28;20053;-74
2023/08/13 06:36:19;;;;;;;17.60;3.33;;;17.00;99.90;;;;;;5051956;28;20136;-76
2023/08/13 06:38:44;;;;;;;30.57;5.80;;;17.20;99.90;;;;;;5052798;28;20080;-74
2023/08/13 06:41:10;;;;;;;20.02;4.53;;;17.30;99.90;;;;;;5052182;28;20151;-75
2023/08/13 06:43:36;;;;;;;18.58;3.88;;;17.40;99.90;;;;;;5052900;28;20107;-77
2023/08/13 06:46:02;;;;;;;22.30;4.43;;;17.50;99.90;;;;;;5051868;28;20440;-75
2023/08/13 06:48:34;;;;;;;16.52;4.05;;;17.50;99.90;;;;;;5050966;28;20559;-73
2023/08/13 06:51:01;;;;;;;24.10;4.40;;;17.50;99.90;;;;;;5053462;28;20419;-75
2023/08/13 06:53:27;;;;;;;23.73;4.40;;;17.60;99.90;;;;;;5051551;28;20477;-75
2023/08/13 06:55:53;;;;;;;18.90;4.40;;;17.60;99.90;;;;;;5019598;28;20085;-76
2023/08/13 06:58:18;;;;;;;25.00;4.17;;;17.70;99.90;;;;;;5051635;28;20370;-74
2023/08/13 07:00:46;;;;;;;21.47;4.57;;;17.70;99.90;;;;;;5052685;28;20589;-74
2023/08/13 07:03:11;;;;;;;22.02;4.13;;;17.80;99.90;;;;;;5052581;28;20482;-75
2023/08/13 07:05:40;;;;;;;15.10;3.50;;;17.80;99.90;;;;;;5054231;28;20047;-75
2023/08/13 07:08:06;;;;;;;20.83;4.47;;;17.90;99.90;;;;;;5039601;28;20102;-75
2023/08/13 07:10:33;;;;;;;17.05;4.05;;;17.90;99.90;;;;;;5054693;28;20049;-75
2023/08/13 07:12:58;;;;;;;18.38;3.33;;;17.90;99.90;;;;;;5038455;28;20060;-73
2023/08/13 07:15:24;;;;;;;21.63;4.47;;;18.00;99.90;;;;;;5056400;28;20045;-74
2023/08/13 07:17:50;;;;;;;27.13;4.37;;;18.00;99.90;;;;;;5054799;28;20037;-76
2023/08/13 07:20:16;;;;;;;14.83;3.70;;;18.10;99.90;;;;;;5055098;28;20124;-77
2023/08/13 07:22:43;;;;;;;22.57;3.67;;;18.10;99.90;;;;;;5056350;28;20131;-74
2023/08/13 07:25:14;;;;;;;21.17;3.80;;;18.20;99.90;;;;;;5054940;28;20130;-77
2023/08/13 07:27:41;;;;;;;15.57;3.60;;;18.40;99.90;;;;;;5055201;28;20442;-75
2023/08/13 07:30:08;;;;;;;17.02;4.30;;;18.50;99.90;;;;;;5055690;28;20049;-75
2023/08/13 07:32:35;;;;;;;17.25;3.80;;;18.60;99.90;;;;;;5054779;28;20537;-75
2023/08/13 07:35:01;;;;;;;;;;;18.70;99.90;;;;;;5056090;28;20127;-76
2023/08/13 07:37:28;;;;;;;15.80;3.50;;;18.70;99.90;;;;;;5056536;28;19983;-73
2023/08/13 07:39:54;;;;;;;14.40;2.40;;;18.80;99.90;;;;;;5054549;28;20102;-75
2023/08/13 07:42:20;;;;;;;18.27;4.50;;;18.80;99.90;;;;;;5038616;28;20092;-76
2023/08/13 07:44:47;;;;;;;20.60;3.93;;;18.90;99.90;;;;;;5054661;28;20076;-75
2023/08/13 07:47:14;;;;;;;14.82;3.90;;;18.90;99.90;;;;;;5055307;28;20124;-76
2023/08/13 07:49:39;;;;;;;17.10;4.35;;;18.90;99.90;;;;;;5055699;28;20092;-76
2023/08/13 07:52:05;;;;;;;20.30;4.23;;;19.00;99.90;;;;;;5055356;28;20091;-75
2023/08/13 07:54:31;;;;;;;20.73;4.30;;;19.00;99.90;;;;;;5054951;28;20132;-73
2023/08/13 07:56:57;;;;;;;19.20;3.63;;;19.10;99.90;;;;;;5055343;28;20057;-74
2023/08/13 07:59:23;;;;;;;22.43;4.80;;;19.20;99.90;;;;;;5037325;28;20055;-74
2023/08/13 08:01:49;;;;;;;21.67;4.13;;;19.20;99.90;;;;;;5054900;28;20463;-74
2023/08/13 08:04:15;;;;;;;17.77;4.10;;;19.30;99.90;;;;;;5054773;28;20287;-75
2023/08/13 08:06:41;;;;;;;17.33;4.37;;;19.40;99.90;;;;;;5055090;28;20045;-74
2023/08/13 08:09:07;;;;;;;19.55;3.85;;;19.50;99.90;;;;;;5054747;28;20049;-75
2023/08/13 08:11:33;;;;;;;14.00;4.17;;;19.70;99.90;;;;;;5053789;28;20051;-76
2023/08/13 08:13:59;;;;;;;19.10;3.72;;;19.80;99.90;;;;;;5053794;28;20045;-75
2023/08/13 08:16:28;;;;;;;16.60;4.38;;;19.90;99.90;;;;;;5055402;28;20155;-77
2023/08/13 08:18:54;;;;;;;20.13;4.27;;;20.10;99.90;;;;;;5054630;28;20611;-76
2023/08/13 08:21:22;;;;;;;23.47;4.43;;;20.10;99.90;;;;;;5054446;28;20053;-76
2023/08/13 08:27:29;;;;;;;19.88;4.13;;;20.10;99.90;;;;;;5054529;28;20078;-77
2023/08/13 08:29:55;;;;;;;20.27;4.73;;;20.20;99.90;;;;;;5036886;28;20435;-74
2023/08/13 08:32:20;;;;;;;11.67;4.00;;;20.30;99.90;;;;;;5054945;28;20565;-75
2023/08/13 08:34:46;;;;;;;25.17;4.50;;;20.30;99.90;;;;;;5054445;28;20094;-74
2023/08/13 08:37:13;;;;;;;16.03;4.10;;;20.40;99.90;;;;;;5036773;28;20068;-76
2023/08/13 08:39:39;;;;;;;19.17;3.97;;;20.40;99.90;;;;;;5053695;28;20057;-75
2023/08/13 08:42:06;;;;;;;24.13;4.13;;;20.30;99.90;;;;;;5052904;28;20425;-75
2023/08/13 08:44:33;;;;;;;20.50;3.75;;;20.30;99.90;;;;;;5054329;28;20044;-74
2023/08/13 08:47:02;;;;;;;17.52;4.10;;;20.40;99.90;;;;;;5054228;28;20063;-75
2023/08/13 08:49:28;;;;;;;20.50;3.72;;;20.30;99.90;;;;;;5036052;28;20497;-75
2023/08/13 08:51:54;;;;;;;19.33;3.88;;;20.40;99.90;;;;;;5036415;28;20401;-75
2023/08/13 08:54:21;;;;;;;20.65;3.28;;;20.50;99.90;;;;;;5054088;28;20406;-74
2023/08/13 08:56:46;;;;;;;18.02;3.53;;;20.60;99.90;;;;;;5053948;28;20052;-76
2023/08/13 08:59:21;;;;;;;17.23;3.37;;;20.70;99.90;;;;;;5054024;28;20102;-76
2023/08/13 09:01:46;;;;;;;19.80;3.35;;;20.70;99.90;;;;;;5054547;28;20107;-76
2023/08/13 09:04:12;;;;;;;19.17;2.90;;;20.70;99.90;;;;;;5052661;28;20432;-74
2023/08/13 09:07:02;;;;;;;18.45;3.38;;;20.70;99.90;;;;;;5053829;28;20148;-77
2023/08/13 09:09:29;;;;;;;16.00;2.42;;;20.80;99.90;;;;;;5054212;28;20052;-75
2023/08/13 09:11:56;;;;;;;13.57;2.78;;;20.80;99.90;;;;;;5052626;28;20102;-73
2023/08/13 09:14:22;;;;;;;;;;;20.90;99.90;;;;;;5053036;28;20103;-72
2023/08/13 09:16:49;;;;;;;12.20;2.42;;;20.80;99.90;;;;;;5053656;28;19927;-74
2023/08/13 09:19:16;;;;;;;30.83;8.60;;;20.90;99.90;;;;;;5053057;28;20139;-75
2023/08/13 09:22:03;;;;;;;14.38;2.50;;;21.00;99.90;;;;;;5052835;28;20080;-78
2023/08/13 09:24:41;;;;;;;13.70;2.67;;;21.00;99.90;;;;;;5071499;28;20087;-76
2023/08/13 09:27:20;;;;;;;20.08;2.97;;;21.10;99.90;;;;;;5035329;28;20061;-77
2023/08/13 09:29:57;;;;;;;10.48;2.30;;;21.10;99.90;;;;;;5035442;28;20041;-76
2023/08/13 09:32:32;;;;;;;14.73;2.38;;;21.10;99.90;;;;;;5022473;28;20473;-72
2023/08/13 09:34:58;;;;;;;11.07;2.25;;;21.30;99.90;;;;;;5052879;28;20053;-76
2023/08/13 09:37:25;;;;;;;11.93;2.10;;;21.40;99.90;;;;;;5053392;28;20045;-75
2023/08/13 09:39:50;;;;;;;14.02;2.20;;;21.50;99.90;;;;;;5053565;28;20400;-74
2023/08/13 09:42:19;;;;;;;10.70;1.80;;;21.50;99.90;;;;;;5051916;28;20049;-76
2023/08/13 09:44:45;;;;;;;12.10;1.92;;;21.50;99.90;;;;;;5053463;28;20051;-76
2023/08/13 09:47:17;;;;;;;10.57;2.38;;;21.60;99.90;;;;;;5053422;28;20468;-79
2023/08/13 09:49:46;;;;;;;10.65;2.17;;;21.60;99.90;;;;;;5052177;28;20177;-76
2023/08/13 09:52:13;;;;;;;9.32;1.48;;;21.80;99.90;;;;;;5069302;28;20405;-74
2023/08/13 09:54:45;;;;;;;10.52;1.33;;;22.00;99.90;;;;;;5054530;28;20045;-79
2023/08/13 09:57:14;;;;;;;8.90;1.40;;;22.20;99.90;;;;;;5053629;28;20051;-76
2023/08/13 09:59:41;;;;;;;9.10;1.75;;;22.40;99.90;;;;;;5055432;28;20060;-73
2023/08/13 10:02:07;;;;;;;;;;;22.50;99.90;;;;;;5053737;28;20146;-75
2023/08/13 10:04:38;;;;;;;7.60;1.38;;;22.50;99.90;;;;;;5053047;28;19921;-80
2023/08/13 10:07:05;;;;;;;7.50;1.25;;;22.40;99.90;;;;;;5053087;28;20053;-74
2023/08/13 10:09:32;;;;;;;12.07;1.60;;;22.40;99.90;;;;;;5053152;28;20056;-74
2023/08/13 10:11:58;;;;;;;;;;;22.50;99.90;;;;;;5053634;28;20136;-76
2023/08/13 10:14:24;;;;;;;11.70;1.25;;;22.50;99.90;;;;;;5053037;28;19967;-76
2023/08/13 10:16:50;;;;;;;11.45;1.20;;;22.70;99.90;;;;;;5052157;28;20045;-75
2023/08/13 10:19:17;;;;;;;11.93;1.50;;;22.90;99.90;;;;;;5052755;28;20606;-76
2023/08/13 10:21:53;;;;;;;8.73;1.33;;;23.10;99.90;;;;;;5052226;28;20508;-78
2023/08/13 10:24:21;;;;;;;8.38;1.42;;;23.30;99.90;;;;;;5053384;28;20388;-77
2023/08/13 10:26:46;;;;;;;9.60;1.58;;;23.10;99.90;;;;;;5053097;28;20126;-73
2023/08/13 10:29:16;;;;;;;11.80;1.50;;;23.10;99.90;;;;;;5053406;28;20473;-74
2023/08/13 10:31:58;;;;;;;11.05;1.83;;;22.90;99.90;;;;;;5053107;28;20048;-76
2023/08/13 10:34:47;;;;;;;9.57;1.70;;;22.80;99.90;;;;;;5052126;28;20363;-75
2023/08/13 10:37:24;;;;;;;11.32;1.90;;;22.60;99.90;;;;;;5052848;28;20049;-74
2023/08/13 10:39:55;;;;;;;9.60;1.50;;;22.70;99.90;;;;;;5054623;28;20049;-75
2023/08/13 10:42:28;;;;;;;8.13;1.40;;;22.70;99.90;;;;;;5055643;28;20049;-74
2023/08/13 10:45:04;;;;;;;12.15;1.95;;;22.80;99.90;;;;;;5055747;28;20120;-73
2023/08/13 10:47:40;;;;;;;;;;;22.80;99.90;;;;;;5056720;28;20513;-72
2023/08/13 10:50:28;;;;;;;11.25;1.75;;;23.00;99.90;;;;;;5056377;28;19964;-74
2023/08/13 10:53:22;;;;;;;11.32;1.58;;;22.90;99.90;;;;;;5057323;28;20453;-74
2023/08/13 10:55:48;;;;;;;9.68;1.15;;;22.90;99.90;;;;;;5056999;28;20394;-74
2023/08/13 10:58:26;;;;;;;;;;;22.80;99.90;;;;;;5056748;28;20478;-75
2023/08/13 11:01:16;;;;;;;7.93;1.48;;;22.80;99.90;;;;;;5056462;28;20404;-76
2023/08/13 11:04:08;;;;;;;9.60;1.30;;;22.90;99.90;;;;;;5039559;28;20061;-74
2023/08/13 11:06:34;;;;;;;10.98;1.42;;;22.90;99.90;;;;;;5055875;28;20136;-76
2023/08/13 11:09:00;;;;;;;11.93;1.63;;;22.90;99.90;;;;;;5055298;28;20049;-76
2023/08/13 11:11:26;;;;;;;13.00;1.52;;;23.00;99.90;;;;;;5038489;28;20057;-73
2023/08/13 11:13:53;;;;;;;7.30;1.23;;;23.10;99.90;;;;;;5056164;28;20087;-75
2023/08/13 11:16:19;;;;;;;16.85;1.92;;;23.30;99.90;;;;;;5056677;28;20106;-75
2023/08/13 11:18:45;;;;;;;12.65;1.65;;;23.40;99.90;;;;;;5055658;28;20048;-75
2023/08/13 11:21:10;;;;;;;9.90;1.90;;;23.60;99.90;;;;;;5056876;28;20049;-75
2023/08/13 11:23:36;;;;;;;13.30;2.40;;;23.80;99.90;;;;;;5056303;28;20488;-74
2023/08/13 11:26:03;;;;;;;10.83;2.00;;;23.90;99.90;;;;;;5055249;28;20043;-76
2023/08/13 11:28:29;;;;;;;12.35;1.67;;;24.00;99.90;;;;;;5038435;28;20079;-75
2023/08/13 11:30:56;;;;;;;13.67;1.80;;;24.20;99.90;;;;;;5056323;28;20048;-75
2023/08/13 11:33:23;;;;;;;9.75;1.83;;;24.20;99.90;;;;;;5056103;28;20110;-71
2023/08/13 11:35:50;;;;;;;;;;;24.00;99.90;;;;;;5057080;28;20440;-73
2023/08/13 11:38:16;;;;;;;11.73;2.30;;;23.80;99.90;;;;;;5055750;28;19921;-75
2023/08/13 11:40:42;;;;;;;10.15;2.30;;;23.60;99.90;;;;;;5054461;28;20041;-74
2023/08/13 11:43:13;;;;;;;13.27;2.28;;;23.40;99.90;;;;;;5055470;28;20489;-75
2023/08/13 11:45:39;;;;;;;9.85;1.88;;;23.20;99.90;;;;;;5054735;28;20380;-74
2023/08/13 11:48:15;;;;;;;15.02;2.47;;;22.90;99.90;;;;;;5055613;28;20115;-77
2023/08/13 11:50:46;;;;;;;13.90;2.37;;;22.80;99.90;;;;;;5053348;28;20056;-75
2023/08/13 11:53:14;;;;;;;10.30;3.03;;;22.70;99.90;;;;;;5055509;28;20311;-74
2023/08/13 11:55:42;;;;;;;15.02;2.40;;;22.60;99.90;;;;;;5054222;28;20572;-74
2023/08/13 11:58:08;;;;;;;13.27;2.58;;;22.60;99.90;;;;;;5054907;28;20518;-74
2023/08/13 12:00:35;;;;;;;11.93;2.50;;;22.60;99.90;;;;;;5055195;28;20041;-74
2023/08/13 12:03:02;;;;;;;17.15;3.00;;;22.70;99.90;;;;;;5038151;28;20284;-74
2023/08/13 12:05:32;;;;;;;16.33;3.17;;;22.70;99.90;;;;;;5054239;28;20049;-74
2023/08/13 12:08:00;;;;;;;16.35;3.47;;;22.70;99.90;;;;;;5037789;28;20474;-73
2023/08/13 12:10:26;;;;;;;13.35;3.03;;;22.80;99.90;;;;;;5037493;28;20049;-73
2023/08/13 12:12:52;;;;;;;16.13;3.08;;;22.80;99.90;;;;;;5055831;28;20049;-74
2023/08/13 12:15:23;;;;;;;11.37;2.60;;;22.80;99.90;;;;;;5055155;28;20064;-75
2023/08/13 12:17:53;;;;;;;18.40;3.40;;;23.00;99.90;;;;;;5037192;28;20481;-75
2023/08/13 12:20:19;;;;;;;16.42;3.05;;;23.20;99.90;;;;;;5037644;28;20045;-74
2023/08/13 12:22:44;;;;;;;21.13;3.30;;;23.30;99.90;;;;;;5054481;28;20563;-78
2023/08/13 12:25:10;;;;;;;22.00;3.20;;;23.60;99.90;;;;;;5054888;28;20084;-74
2023/08/13 12:27:36;;;;;;;14.38;2.95;;;23.60;99.90;;;;;;5054604;28;20049;-74
2023/08/13 12:30:03;;;;;;;20.60;3.50;;;23.90;99.90;;;;;;5037097;28;20122;-71
2023/08/13 12:32:29;;;;;;;;;;;24.10;99.90;;;;;;5053877;28;20319;-74
2023/08/13 12:34:55;;;;;;;16.73;3.45;;;24.20;99.90;;;;;;5053168;28;20058;-74
2023/08/13 12:37:20;;;;;;;19.03;3.47;;;24.40;99.90;;;;;;5054515;28;20099;-75
2023/08/13 12:39:46;;;;;;;14.63;3.03;;;24.40;99.90;;;;;;5054024;28;20049;-74
2023/08/13 12:42:13;;;;;;;22.17;3.30;;;24.30;99.90;;;;;;5055191;28;20075;-74
2023/08/13 12:44:39;;;;;;;20.65;3.05;;;24.40;99.90;;;;;;5037117;28;20111;-76
2023/08/13 12:47:05;;;;;;;15.57;3.00;;;24.40;99.90;;;;;;5054652;28;20041;-77